Time;durP1;ratioP1;P1;durP2;ratioP2;P2;SDS_P1;SDS_P2;PMS_P1;PMS_P2;Temp;Humidity;BMP_temperature;BMP_pressure;BME280_temperature;BME280_humidity;BME280_pressure;Samples;Min_cycle;Max_cycle;Signal;HPM_P1;HPM_P2
2023/04/06 00:01:59;;;;;;;1.67;1.52;;;;;;;;;;10424607;28;20221;-77
2023/04/06 00:07:00;;;;;;;1.80;1.23;;;;;;;;;;10433234;28;21025;-77
2023/04/06 00:12:01;;;;;;;1.60;1.50;;;;;;;;;;10448008;28;20214;-77
2023/04/06 00:17:03;;;;;;;1.40;1.40;;;;;;;;;;10426697;28;20243;-76
2023/04/06 00:22:04;;;;;;;1.95;1.58;;;;;;;;;;10446077;28;20226;-78
2023/04/06 00:27:05;;;;;;;1.80;1.45;;;;;;;;;;10441093;28;20221;-76
2023/04/06 00:32:06;;;;;;;1.95;1.50;;;;;;;;;;10425496;28;20211;-77
2023/04/06 00:37:07;;;;;;;1.80;1.70;;;;;;;;;;10433098;28;20218;-77
2023/04/06 00:42:13;;;;;;;3.07;1.70;;;;;;;;;;10436781;28;20217;-77
2023/04/06 00:47:14;;;;;;;1.40;1.40;;;;;;;;;;10433312;28;20249;-78
2023/04/06 00:52:16;;;;;;;1.98;1.58;;;;;;;;;;10428060;28;20214;-77
2023/04/06 00:57:20;;;;;;;1.85;1.42;;;;;;;;;;10425656;28;20306;-74
2023/04/06 01:02:26;;;;;;;2.45;1.85;;;;;;;;;;10424660;28;20219;-78
2023/04/06 01:07:28;;;;;;;1.85;1.40;;;;;;;;;;10425882;28;20226;-77
2023/04/06 01:12:44;;;;;;;3.30;1.50;;;;;;;;;;10415318;28;20221;-77
2023/04/06 01:17:54;;;;;;;1.48;1.48;;;;;;;;;;10431376;28;20301;-77
2023/04/06 01:22:55;;;;;;;1.37;1.27;;;;;;;;;;10425033;28;20219;-75
2023/04/06 01:27:56;;;;;;;4.25;1.30;;;;;;;;;;10424922;28;20218;-78
2023/04/06 01:33:16;;;;;;;1.52;1.50;;;;;;;;;;10431025;28;20224;-76
2023/04/06 01:38:33;;;;;;;3.13;1.20;;;;;;;;;;10422847;28;20213;-76
2023/04/06 01:43:34;;;;;;;2.13;1.23;;;;;;;;;;10431752;28;20381;-77
2023/04/06 01:48:39;;;;;;;4.80;1.50;;;;;;;;;;10418999;28;20218;-79
2023/04/06 01:54:04;;;;;;;2.10;2.00;;;;;;;;;;10433659;28;20210;-78
2023/04/06 01:59:28;;;;;;;3.70;1.60;;;;;;;;;;10436205;28;20325;-78
2023/04/06 02:04:29;;;;;;;1.80;1.60;;;;;;;;;;10456892;28;20241;-78
2023/04/06 02:09:40;;;;;;;3.35;1.83;;;;;;;;;;10458808;28;20259;-78
2023/04/06 02:14:46;;;;;;;2.30;2.10;;;;;;;;;;10447357;28;20215;-77
2023/04/06 02:19:47;;;;;;;2.40;2.25;;;;;;;;;;10441200;28;20814;-77
2023/04/06 02:24:48;;;;;;;3.22;2.13;;;;;;;;;;10428793;28;20222;-77
2023/04/06 02:29:50;;;;;;;5.13;2.67;;;;;;;;;;10422901;28;20206;-75
2023/04/06 02:34:54;;;;;;;2.83;2.20;;;;;;;;;;10435841;28;20214;-77
2023/04/06 02:39:56;;;;;;;3.35;2.13;;;;;;;;;;10438170;28;20658;-78
2023/04/06 02:44:58;;;;;;;3.90;1.80;;;;;;;;;;10427986;28;20312;-78
2023/04/06 02:50:04;;;;;;;2.00;1.77;;;;;;;;;;10426095;28;20210;-77
2023/04/06 02:55:07;;;;;;;4.20;2.30;;;;;;;;;;10427086;28;20748;-78
2023/04/06 03:00:09;;;;;;;2.60;2.03;;;;;;;;;;10455644;28;20211;-78
2023/04/06 03:05:14;;;;;;;3.40;2.00;;;;;;;;;;10399855;28;20215;-77
2023/04/06 03:10:18;;;;;;;2.20;1.95;;;;;;;;;;10433025;28;20198;-76
2023/04/06 03:15:21;;;;;;;2.17;2.07;;;;;;;;;;10413968;28;20207;-77
2023/04/06 03:20:27;;;;;;;2.73;2.53;;;;;;;;;;10419405;28;20300;-77
2023/04/06 03:25:29;;;;;;;2.47;2.00;;;;;;;;;;10425606;28;20264;-77
2023/04/06 03:30:35;;;;;;;2.70;2.50;;;;;;;;;;10425850;28;20225;-77
2023/04/06 03:35:36;;;;;;;3.80;3.00;;;;;;;;;;10433491;28;20246;-79
2023/04/06 03:40:37;;;;;;;3.73;2.93;;;;;;;;;;10421003;28;20839;-78
2023/04/06 03:45:39;;;;;;;4.47;2.40;;;;;;;;;;10434659;28;20865;-77
2023/04/06 03:50:40;;;;;;;4.40;2.63;;;;;;;;;;10439259;28;20221;-77
2023/04/06 03:55:41;;;;;;;3.50;3.27;;;;;;;;;;10423067;28;20315;-79
2023/04/06 04:00:42;;;;;;;4.10;2.80;;;;;;;;;;10442133;28;20605;-77
2023/04/06 04:05:43;;;;;;;2.70;2.50;;;;;;;;;;10435765;28;20711;-77
2023/04/06 04:10:45;;;;;;;3.77;3.23;;;;;;;;;;10435279;28;20230;-75
2023/04/06 04:15:47;;;;;;;6.57;3.17;;;;;;;;;;10437018;28;20229;-77
2023/04/06 04:20:50;;;;;;;3.27;2.87;;;;;;;;;;10438675;28;20223;-78
2023/04/06 04:25:54;;;;;;;5.83;3.27;;;;;;;;;;10420481;28;20319;-76
2023/04/06 04:30:55;;;;;;;5.27;3.07;;;;;;;;;;10425392;28;20227;-76
2023/04/06 04:35:57;;;;;;;3.43;3.17;;;;;;;;;;10415513;28;20214;-75
2023/04/06 04:41:02;;;;;;;4.73;3.20;;;;;;;;;;10411017;28;20237;-77
2023/04/06 04:46:05;;;;;;;2.80;2.60;;;;;;;;;;10412869;28;20225;-77
2023/04/06 04:51:13;;;;;;;4.37;3.20;;;;;;;;;;10416288;28;20280;-76
2023/04/06 04:56:39;;;;;;;4.03;3.03;;;;;;;;;;10425424;28;20214;-78
2023/04/06 05:02:03;;;;;;;5.07;3.47;;;;;;;;;;10430862;28;20677;-76
2023/04/06 05:07:15;;;;;;;5.13;3.70;;;;;;;;;;10432654;28;20603;-76
2023/04/06 05:12:16;;;;;;;6.45;3.92;;;;;;;;;;10424420;28;20317;-76
2023/04/06 05:17:27;;;;;;;4.47;3.37;;;;;;;;;;10411123;28;20214;-76
2023/04/06 05:22:29;;;;;;;3.63;3.33;;;;;;;;;;10455890;28;20230;-77
2023/04/06 05:27:40;;;;;;;7.33;3.43;;;;;;;;;;10414996;28;20639;-77
2023/04/06 05:32:51;;;;;;;7.90;4.23;;;;;;;;;;10418210;28;20297;-76
2023/04/06 05:37:52;;;;;;;4.90;3.60;;;;;;;;;;10407772;28;20215;-75
2023/04/06 05:42:58;;;;;;;5.87;4.13;;;;;;;;;;10432106;28;21513;-76
2023/04/06 05:47:59;;;;;;;5.37;4.17;;;;;;;;;;10436721;28;20218;-75
2023/04/06 05:53:03;;;;;;;4.53;3.53;;;;;;;;;;10428154;28;20289;-76
2023/04/06 05:58:12;;;;;;;4.95;4.55;;;;;;;;;;10427454;28;20276;-76
2023/04/06 06:03:14;;;;;;;6.10;3.67;;;;;;;;;;10426590;28;20224;-74
2023/04/06 06:08:20;;;;;;;4.70;4.28;;;;;;;;;;10446646;28;20227;-76
2023/04/06 06:13:24;;;;;;;6.07;4.17;;;;;;;;;;10414556;28;20223;-76
2023/04/06 06:18:25;;;;;;;9.90;4.80;;;;;;;;;;10418499;28;20214;-76
2023/04/06 06:23:28;;;;;;;5.35;4.50;;;;;;;;;;10418680;28;20225;-76
2023/04/06 06:28:29;;;;;;;5.10;4.53;;;;;;;;;;10412159;28;20305;-77
2023/04/06 06:33:31;;;;;;;6.53;4.40;;;;;;;;;;10421619;28;20333;-77
2023/04/06 06:38:33;;;;;;;5.28;4.35;;;;;;;;;;10419313;28;20283;-76
2023/04/06 06:43:34;;;;;;;6.72;4.03;;;;;;;;;;10427944;28;20265;-77
2023/04/06 06:48:41;;;;;;;6.18;4.72;;;;;;;;;;10420308;28;20448;-77
2023/04/06 06:53:42;;;;;;;10.63;3.28;;;;;;;;;;10402733;28;20226;-76
2023/04/06 06:58:43;;;;;;;6.13;3.88;;;;;;;;;;10395631;28;20249;-77
2023/04/06 07:03:44;;;;;;;4.20;3.78;;;;;;;;;;10405919;28;20232;-77
2023/04/06 07:08:45;;;;;;;3.47;2.72;;;;;;;;;;10416321;28;20226;-76
2023/04/06 07:13:46;;;;;;;5.10;3.20;;;;;;;;;;10422015;28;20236;-74
2023/04/06 07:18:47;;;;;;;6.95;3.58;;;;;;;;;;10420943;28;20223;-75
2023/04/06 07:23:50;;;;;;;5.70;3.35;;;;;;;;;;10412146;28;20228;-73
2023/04/06 07:28:51;;;;;;;3.92;3.20;;;;;;;;;;10404375;28;20218;-72
2023/04/06 07:33:53;;;;;;;5.68;3.53;;;;;;;;;;10417866;28;20223;-77
2023/04/06 07:38:55;;;;;;;2.75;2.55;;;;;;;;;;10417080;28;20289;-77
2023/04/06 07:43:57;;;;;;;2.88;2.78;;;;;;;;;;10398982;28;20287;-77
2023/04/06 07:49:00;;;;;;;2.60;2.50;;;;;;;;;;10422466;28;20228;-77
2023/04/06 07:54:03;;;;;;;3.85;3.55;;;;;;;;;;10407127;28;20223;-77
2023/04/06 07:59:04;;;;;;;4.90;3.63;;;;;;;;;;10414207;28;20870;-75
2023/04/06 08:04:05;;;;;;;4.63;3.85;;;;;;;;;;10424628;28;20225;-77
2023/04/06 08:09:06;;;;;;;6.45;4.20;;;;;;;;;;10410052;28;20226;-75
2023/04/06 08:14:08;;;;;;;4.38;3.97;;;;;;;;;;10420655;28;20648;-76
2023/04/06 08:19:09;;;;;;;7.03;4.53;;;;;;;;;;10406358;28;20312;-77
2023/04/06 08:24:10;;;;;;;5.97;4.20;;;;;;;;;;10408488;28;22266;-77
2023/04/06 08:29:11;;;;;;;4.07;3.78;;;;;;;;;;10422896;28;20703;-76
2023/04/06 08:34:12;;;;;;;4.85;4.28;;;;;;;;;;10430484;28;20879;-78
2023/04/06 08:39:13;;;;;;;5.15;3.85;;;;;;;;;;10428704;28;20224;-77
2023/04/06 08:44:14;;;;;;;4.80;4.38;;;;;;;;;;10409744;28;20692;-76
2023/04/06 08:49:16;;;;;;;4.65;3.80;;;;;;;;;;10435022;28;20313;-77
2023/04/06 08:54:17;;;;;;;4.63;4.30;;;;;;;;;;10412230;28;20709;-77
2023/04/06 08:59:18;;;;;;;8.75;3.78;;;;;;;;;;10423020;28;20202;-74
2023/04/06 09:04:19;;;;;;;4.40;4.10;;;;;;;;;;10439501;28;20697;-78
2023/04/06 09:09:22;;;;;;;4.20;3.90;;;;;;;;;;10424297;28;20214;-77
2023/04/06 09:14:40;;;;;;;5.45;4.82;;;;;;;;;;10432227;28;20655;-77
2023/04/06 09:19:47;;;;;;;5.82;5.00;;;;;;;;;;10438267;28;20936;-75
2023/04/06 09:24:52;;;;;;;4.38;4.10;;;;;;;;;;10432846;28;20230;-77
2023/04/06 09:30:02;;;;;;;4.57;4.18;;;;;;;;;;10425708;28;20704;-77
2023/04/06 09:35:07;;;;;;;4.78;4.38;;;;;;;;;;10418533;28;20257;-77
2023/04/06 09:40:08;;;;;;;4.55;4.30;;;;;;;;;;10420484;28;20203;-78
2023/04/06 09:45:10;;;;;;;6.45;5.00;;;;;;;;;;10433017;28;20292;-77
2023/04/06 09:50:12;;;;;;;6.60;5.05;;;;;;;;;;10411097;28;20290;-77
2023/04/06 09:55:16;;;;;;;6.13;4.80;;;;;;;;;;10422837;28;20203;-77
2023/04/06 10:00:19;;;;;;;4.45;4.13;;;;;;;;;;10431561;28;20234;-79
2023/04/06 10:05:25;;;;;;;4.72;3.80;;;;;;;;;;10439122;28;20253;-76
2023/04/06 10:10:27;;;;;;;5.70;4.38;;;;;;;;;;10406158;28;20216;-78
2023/04/06 10:15:29;;;;;;;5.18;4.78;;;;;;;;;;10440908;28;20226;-77
2023/04/06 10:20:40;;;;;;;5.88;5.38;;;;;;;;;;10421368;28;20211;-77
2023/04/06 10:25:52;;;;;;;5.30;4.45;;;;;;;;;;10431972;28;20243;-75
2023/04/06 10:30:59;;;;;;;4.75;4.35;;;;;;;;;;10429056;28;20210;-77
2023/04/06 10:36:16;;;;;;;3.75;3.55;;;;;;;;;;10395390;28;20223;-77
2023/04/06 10:41:17;;;;;;;4.63;4.25;;;;;;;;;;10424146;28;20226;-77
2023/04/06 10:46:25;;;;;;;5.20;4.43;;;;;;;;;;10426340;28;20218;-75
2023/04/06 10:51:29;;;;;;;6.00;4.30;;;;;;;;;;10437254;28;20217;-77
2023/04/06 10:56:31;;;;;;;4.97;4.45;;;;;;;;;;10415369;28;20211;-77
2023/04/06 11:01:32;;;;;;;4.60;4.20;;;;;;;;;;10426824;28;20818;-77
2023/04/06 11:06:33;;;;;;;5.03;4.43;;;;;;;;;;10426678;28;20214;-76
2023/04/06 11:11:39;;;;;;;6.80;4.40;;;;;;;;;;10424771;28;20229;-77
2023/04/06 11:16:41;;;;;;;5.22;4.82;;;;;;;;;;10436396;28;21282;-75
2023/04/06 11:21:43;;;;;;;4.63;4.25;;;;;;;;;;10429422;28;20229;-77
2023/04/06 11:26:48;;;;;;;5.07;4.68;;;;;;;;;;10426061;28;20597;-77
2023/04/06 11:31:50;;;;;;;4.68;4.38;;;;;;;;;;10423801;28;20598;-80
2023/04/06 11:37:07;;;;;;;5.70;5.18;;;;;;;;;;10443181;28;20219;-79
2023/04/06 11:42:09;;;;;;;5.65;5.35;;;;;;;;;;10434268;28;20604;-77
2023/04/06 11:47:11;;;;;;;5.00;4.70;;;;;;;;;;10433496;28;20225;-77
2023/04/06 11:52:19;;;;;;;8.80;6.15;;;;;;;;;;10433216;28;20213;-76
2023/04/06 11:57:22;;;;;;;6.05;5.28;;;;;;;;;;10426353;28;20328;-75
2023/04/06 12:02:23;;;;;;;6.65;6.05;;;;;;;;;;10416604;28;20223;-78
2023/04/06 12:07:24;;;;;;;7.18;6.47;;;;;;;;;;10425883;28;20230;-76
2023/04/06 12:12:25;;;;;;;6.30;5.80;;;;;;;;;;10435928;28;20699;-76
2023/04/06 12:17:26;;;;;;;5.70;5.30;;;;;;;;;;10434976;28;20636;-78
2023/04/06 12:22:28;;;;;;;6.40;5.57;;;;;;;;;;10448549;28;20210;-77
2023/04/06 12:27:29;;;;;;;5.93;5.43;;;;;;;;;;10401250;28;20210;-78
2023/04/06 12:32:30;;;;;;;6.55;5.95;;;;;;;;;;10433173;28;20215;-77
2023/04/06 12:37:31;;;;;;;5.25;4.93;;;;;;;;;;10434030;28;20211;-79
2023/04/06 12:42:32;;;;;;;6.03;5.50;;;;;;;;;;10408482;28;20218;-78
2023/04/06 12:47:33;;;;;;;5.50;5.10;;;;;;;;;;10439167;28;20214;-78
2023/04/06 12:52:35;;;;;;;4.72;4.40;;;;;;;;;;10419862;28;20728;-78
2023/04/06 12:57:36;;;;;;;5.28;4.88;;;;;;;;;;10408509;28;20230;-79
2023/04/06 13:02:38;;;;;;;4.63;4.30;;;;;;;;;;10426099;28;20223;-78
2023/04/06 13:07:39;;;;;;;5.53;5.13;;;;;;;;;;10411686;28;20230;-79
2023/04/06 13:12:40;;;;;;;5.07;4.68;;;;;;;;;;10429583;28;20206;-78
2023/04/06 13:17:41;;;;;;;4.93;4.57;;;;;;;;;;10431147;28;20222;-80
2023/04/06 13:22:42;;;;;;;5.13;4.82;;;;;;;;;;10402743;28;20219;-80
2023/04/06 13:27:46;;;;;;;9.95;5.32;;;;;;;;;;10413008;28;20219;-76
2023/04/06 13:32:47;;;;;;;4.70;4.40;;;;;;;;;;10428928;28;20317;-78
2023/04/06 13:37:48;;;;;;;4.68;4.30;;;;;;;;;;10430060;28;20218;-77
2023/04/06 13:42:50;;;;;;;50.30;7.80;;;;;;;;;;10424013;28;20244;-75
2023/04/06 13:47:51;;;;;;;6.57;5.15;;;;;;;;;;10410314;28;20329;-73
2023/04/06 13:52:52;;;;;;;5.13;4.72;;;;;;;;;;10398973;28;20218;-73
2023/04/06 13:57:54;;;;;;;5.50;4.97;;;;;;;;;;10420984;28;20771;-73
2023/04/06 14:02:55;;;;;;;5.43;4.82;;;;;;;;;;10412386;28;20294;-76
2023/04/06 14:07:56;;;;;;;4.88;4.47;;;;;;;;;;10429882;28;20210;-74
2023/04/06 14:12:58;;;;;;;5.20;4.32;;;;;;;;;;10436259;28;20461;-74
2023/04/06 14:18:00;;;;;;;5.32;4.93;;;;;;;;;;10429937;28;20223;-74
2023/04/06 14:23:01;;;;;;;5.53;4.70;;;;;;;;;;10411136;28;20376;-74
2023/04/06 14:28:02;;;;;;;4.43;4.22;;;;;;;;;;10422122;28;20268;-79
2023/04/06 14:33:03;;;;;;;4.63;4.43;;;;;;;;;;10433111;28;20602;-78
2023/04/06 14:38:05;;;;;;;4.38;4.07;;;;;;;;;;10430399;28;20211;-78
2023/04/06 14:43:06;;;;;;;5.82;4.85;;;;;;;;;;10423994;28;20233;-78
2023/04/06 14:48:08;;;;;;;4.40;4.15;;;;;;;;;;10395371;28;20210;-78
2023/04/06 14:53:10;;;;;;;5.80;5.10;;;;;;;;;;10424226;28;20585;-78
2023/04/06 14:58:11;;;;;;;4.60;4.20;;;;;;;;;;10424970;28;20245;-79
2023/04/06 15:03:12;;;;;;;4.18;3.88;;;;;;;;;;10415012;28;20272;-79
2023/04/06 15:08:14;;;;;;;6.05;5.40;;;;;;;;;;10414224;28;20230;-78
2023/04/06 15:13:16;;;;;;;5.60;4.50;;;;;;;;;;10433861;28;20223;-78
2023/04/06 15:18:17;;;;;;;5.10;4.70;;;;;;;;;;10439454;28;20214;-79
2023/04/06 15:23:18;;;;;;;5.20;4.70;;;;;;;;;;10406604;28;20222;-79
2023/04/06 15:28:19;;;;;;;4.78;4.47;;;;;;;;;;10440182;28;20304;-80
2023/04/06 15:33:20;;;;;;;4.22;3.80;;;;;;;;;;10453112;28;20214;-78
2023/04/06 15:38:22;;;;;;;7.28;5.00;;;;;;;;;;10428845;28;20696;-77
2023/04/06 15:43:23;;;;;;;4.45;4.10;;;;;;;;;;10442616;28;20251;-78
2023/04/06 15:48:24;;;;;;;5.53;4.93;;;;;;;;;;10432581;28;20217;-77
2023/04/06 15:53:26;;;;;;;6.20;4.70;;;;;;;;;;10392835;28;20227;-77
2023/04/06 15:58:28;;;;;;;4.25;4.00;;;;;;;;;;10405951;28;20698;-78
2023/04/06 16:03:29;;;;;;;4.40;4.00;;;;;;;;;;10426106;28;20218;-78
2023/04/06 16:08:30;;;;;;;4.97;4.65;;;;;;;;;;10429375;28;20588;-78
2023/04/06 16:13:31;;;;;;;4.97;4.50;;;;;;;;;;10422231;28;20213;-77
2023/04/06 16:18:32;;;;;;;7.78;4.63;;;;;;;;;;10419504;28;20215;-78
2023/04/06 16:23:33;;;;;;;5.03;4.50;;;;;;;;;;10399073;28;20731;-77
2023/04/06 16:28:34;;;;;;;4.68;4.38;;;;;;;;;;10429135;28;20244;-78
2023/04/06 16:33:35;;;;;;;4.30;4.00;;;;;;;;;;10418891;28;20222;-78
2023/04/06 16:38:36;;;;;;;5.25;4.47;;;;;;;;;;10406351;28;20272;-78
2023/04/06 16:43:37;;;;;;;4.50;4.20;;;;;;;;;;10425266;28;20265;-77
2023/04/06 16:48:38;;;;;;;7.85;4.63;;;;;;;;;;10421727;28;20241;-77
2023/04/06 16:53:39;;;;;;;4.00;3.55;;;;;;;;;;10426564;28;20218;-74
2023/04/06 16:58:40;;;;;;;3.80;3.70;;;;;;;;;;10437357;28;20810;-78
2023/04/06 17:03:42;;;;;;;7.68;4.55;;;;;;;;;;10443915;28;20238;-76
2023/04/06 17:08:44;;;;;;;3.80;3.40;;;;;;;;;;10436706;28;20225;-77
2023/04/06 17:13:47;;;;;;;4.10;3.70;;;;;;;;;;10437790;28;20214;-76
2023/04/06 17:18:48;;;;;;;4.80;4.30;;;;;;;;;;10413292;28;20241;-77
2023/04/06 17:23:50;;;;;;;7.97;3.55;;;;;;;;;;10434707;28;20326;-78
2023/04/06 17:28:51;;;;;;;4.40;4.00;;;;;;;;;;10446522;28;21429;-77
2023/04/06 17:33:52;;;;;;;3.90;3.60;;;;;;;;;;10428761;28;20210;-76
2023/04/06 17:38:53;;;;;;;6.35;4.65;;;;;;;;;;10422740;28;20429;-77
2023/04/06 17:43:54;;;;;;;5.10;4.50;;;;;;;;;;10432372;28;20221;-76
2023/04/06 17:48:55;;;;;;;5.18;4.70;;;;;;;;;;10393932;28;20247;-76
2023/04/06 17:53:56;;;;;;;4.85;4.50;;;;;;;;;;10409779;28;20228;-78
2023/04/06 17:58:57;;;;;;;6.00;4.90;;;;;;;;;;10423223;28;20279;-77
2023/04/06 18:03:58;;;;;;;6.65;5.85;;;;;;;;;;10417483;28;20214;-78
2023/04/06 18:09:00;;;;;;;6.60;5.90;;;;;;;;;;10430072;28;20214;-78
2023/04/06 18:14:05;;;;;;;7.78;6.15;;;;;;;;;;10447657;28;20222;-79
2023/04/06 18:19:06;;;;;;;6.53;5.93;;;;;;;;;;10433905;28;20225;-78
2023/04/06 18:24:07;;;;;;;5.72;5.28;;;;;;;;;;10409825;28;20256;-77
2023/04/06 18:29:09;;;;;;;6.00;4.93;;;;;;;;;;10389185;28;20760;-77
2023/04/06 18:34:10;;;;;;;5.80;5.30;;;;;;;;;;10421614;28;20210;-79
2023/04/06 18:39:11;;;;;;;6.80;6.10;;;;;;;;;;10416329;28;20238;-78
2023/04/06 18:44:12;;;;;;;6.05;5.55;;;;;;;;;;10429332;28;20241;-79
2023/04/06 18:49:13;;;;;;;6.20;5.68;;;;;;;;;;10402824;28;20229;-79
2023/04/06 18:54:14;;;;;;;5.70;5.20;;;;;;;;;;10405451;28;20218;-81
2023/04/06 18:59:16;;;;;;;5.97;5.38;;;;;;;;;;10423042;28;20206;-79
2023/04/06 19:04:17;;;;;;;7.18;5.60;;;;;;;;;;10417169;28;20229;-78
2023/04/06 19:09:18;;;;;;;6.47;5.95;;;;;;;;;;10406213;28;20265;-79
2023/04/06 19:14:19;;;;;;;6.38;5.78;;;;;;;;;;10398240;28;20209;-78
2023/04/06 19:19:20;;;;;;;6.40;4.90;;;;;;;;;;10422958;28;20225;-79
2023/04/06 19:24:21;;;;;;;5.72;5.20;;;;;;;;;;10419820;28;20210;-78
2023/04/06 19:29:22;;;;;;;6.32;5.72;;;;;;;;;;10429345;28;20272;-79
2023/04/06 19:34:23;;;;;;;6.40;4.97;;;;;;;;;;10404177;28;20314;-79
2023/04/06 19:39:25;;;;;;;5.93;5.32;;;;;;;;;;10430854;28;20272;-79
2023/04/06 19:44:26;;;;;;;6.40;5.80;;;;;;;;;;10416019;28;20246;-79
2023/04/06 19:49:27;;;;;;;5.70;5.30;;;;;;;;;;10402876;28;20735;-77
2023/04/06 19:54:28;;;;;;;6.40;5.85;;;;;;;;;;10407212;28;20202;-76
2023/04/06 19:59:29;;;;;;;6.22;5.10;;;;;;;;;;10426523;28;20218;-76
2023/04/06 20:04:30;;;;;;;6.35;5.55;;;;;;;;;;10420748;28;20890;-77
2023/04/06 20:09:31;;;;;;;6.07;5.07;;;;;;;;;;10401265;28;20312;-76
2023/04/06 20:14:33;;;;;;;12.00;6.35;;;;;;;;;;10403386;28;20210;-78
2023/04/06 20:19:34;;;;;;;8.15;6.68;;;;;;;;;;10434617;28;20638;-77
2023/04/06 20:24:35;;;;;;;7.15;6.07;;;;;;;;;;10441804;28;20215;-77
2023/04/06 20:29:36;;;;;;;7.25;6.15;;;;;;;;;;10436779;28;20269;-77
2023/04/06 20:34:37;;;;;;;5.72;5.32;;;;;;;;;;10450205;28;20210;-74
2023/04/06 20:39:38;;;;;;;6.93;5.55;;;;;;;;;;10433875;28;20230;-77
2023/04/06 20:44:39;;;;;;;6.78;6.18;;;;;;;;;;10434120;28;20218;-76
2023/04/06 20:49:40;;;;;;;6.30;5.70;;;;;;;;;;10440557;28;20275;-76
2023/04/06 20:54:41;;;;;;;8.40;5.97;;;;;;;;;;10445796;28;20684;-77
2023/04/06 20:59:43;;;;;;;6.80;6.15;;;;;;;;;;10449512;28;20241;-77
2023/04/06 21:04:44;;;;;;;8.60;6.78;;;;;;;;;;10445907;28;20221;-77
2023/04/06 21:09:46;;;;;;;8.45;6.30;;;;;;;;;;10440759;28;20218;-76
2023/04/06 21:14:47;;;;;;;7.25;6.45;;;;;;;;;;10441279;28;20229;-77
2023/04/06 21:19:48;;;;;;;6.82;6.18;;;;;;;;;;10446325;28;20313;-77
2023/04/06 21:24:49;;;;;;;7.15;6.30;;;;;;;;;;10427559;28;20226;-77
2023/04/06 21:29:50;;;;;;;6.55;5.95;;;;;;;;;;10445108;28;20260;-76
2023/04/06 21:34:51;;;;;;;8.57;6.57;;;;;;;;;;10440515;28;20206;-74
2023/04/06 21:39:54;;;;;;;9.07;6.65;;;;;;;;;;10430041;28;20223;-77
2023/04/06 21:44:55;;;;;;;7.80;7.10;;;;;;;;;;10443819;28;20306;-79
2023/04/06 21:49:57;;;;;;;9.10;7.30;;;;;;;;;;10424704;28;20240;-76
2023/04/06 21:54:58;;;;;;;7.97;7.22;;;;;;;;;;10445030;28;20223;-77
2023/04/06 21:59:59;;;;;;;9.32;7.32;;;;;;;;;;10432685;28;20600;-77
2023/04/06 22:05:01;;;;;;;9.77;7.63;;;;;;;;;;10446475;28;20290;-77
2023/04/06 22:10:02;;;;;;;13.02;6.97;;;;;;;;;;10446922;28;20291;-75
2023/04/06 22:15:03;;;;;;;8.90;6.93;;;;;;;;;;10439907;28;20206;-77
2023/04/06 22:20:04;;;;;;;9.13;7.40;;;;;;;;;;10443149;28;20296;-77
2023/04/06 22:25:05;;;;;;;9.48;7.13;;;;;;;;;;10439996;28;20289;-77
2023/04/06 22:30:07;;;;;;;7.68;6.88;;;;;;;;;;10442962;28;20226;-76
2023/04/06 22:35:08;;;;;;;9.93;7.55;;;;;;;;;;10445413;28;20703;-77
2023/04/06 22:40:12;;;;;;;9.85;7.32;;;;;;;;;;10439777;28;20206;-77
2023/04/06 22:45:13;;;;;;;8.30;7.25;;;;;;;;;;10440035;28;20634;-75
2023/04/06 22:50:15;;;;;;;9.30;7.82;;;;;;;;;;10444339;28;20234;-75
2023/04/06 22:55:16;;;;;;;8.45;7.18;;;;;;;;;;10425368;28;21623;-78
2023/04/06 23:00:17;;;;;;;9.20;6.68;;;;;;;;;;10434225;28;20207;-77
2023/04/06 23:05:18;;;;;;;11.57;7.70;;;;;;;;;;10434610;28;20940;-76
2023/04/06 23:10:19;;;;;;;10.63;7.45;;;;;;;;;;10439986;28;20748;-76
2023/04/06 23:15:21;;;;;;;7.35;6.65;;;;;;;;;;10429600;28;20203;-77
2023/04/06 23:20:22;;;;;;;9.63;7.53;;;;;;;;;;10439731;28;20203;-76
2023/04/06 23:25:23;;;;;;;8.88;7.22;;;;;;;;;;10439564;28;20222;-77
2023/04/06 23:30:24;;;;;;;11.45;7.00;;;;;;;;;;10415736;28;20236;-77
2023/04/06 23:35:25;;;;;;;11.68;7.85;;;;;;;;;;10434314;28;20602;-76
2023/04/06 23:40:26;;;;;;;8.70;6.72;;;;;;;;;;10436313;28;20592;-77
2023/04/06 23:45:27;;;;;;;9.85;7.60;;;;;;;;;;10430063;28;20221;-76
2023/04/06 23:50:28;;;;;;;9.05;6.95;;;;;;;;;;10439472;28;20222;-77
2023/04/06 23:55:29;;;;;;;7.55;6.65;;;;;;;;;;10438114;28;20637;-78
